Pleasant Lake, Indiana
Current Conditions -  °F | °C
As of 6:35 AM on Friday 28 Nov 2014 (Local Time) from KANQ Reporting Station
Overcast Overcast  
Wind Chill: 18°   Ceiling: 2100
Heat Index: 18°   Visibility: 10mi
Dew Point: 16°   Wind: 3mph
Humidity: 93%   Direction: 240°WSW
Pressure: 30.34"   Gusts: NA
Location:  41.58°N, 85.02°W
Report Text: KANQ 281135Z AUTO 24003KT 10SM BKN021 OVC100 M08/M09 A3034 RMK
Loading
Personal Weather Stations






























Interactive Weather Map New forecast layout! Learn more

10-Day Weather Forecast

Advertisements
Track Severe Weather on mobile